createdAt,value
2018-04-22T00:01:11.309Z,17.20
2018-04-22T00:03:38.896Z,17.20
2018-04-22T00:06:06.565Z,17.10
2018-04-22T00:08:34.943Z,17.10
2018-04-22T00:11:03.767Z,17.10
2018-04-22T00:13:31.493Z,17.10
2018-04-22T00:15:59.836Z,17.20
2018-04-22T00:18:27.426Z,17.10
2018-04-22T00:20:55.793Z,17.10
2018-04-22T00:23:23.391Z,17.10
2018-04-22T00:25:50.953Z,16.90
2018-04-22T00:28:18.548Z,16.80
2018-04-22T00:30:46.128Z,16.70
2018-04-22T00:33:13.716Z,16.70
2018-04-22T00:35:42.038Z,16.80
2018-04-22T00:38:09.729Z,16.80
2018-04-22T00:40:37.337Z,16.80
2018-04-22T00:43:04.905Z,16.60
2018-04-22T00:45:32.516Z,16.50
2018-04-22T00:48:00.867Z,16.70
2018-04-22T00:50:28.468Z,16.70
2018-04-22T00:52:56.987Z,16.50
2018-04-22T00:55:24.575Z,16.50
2018-04-22T00:57:52.174Z,16.40
2018-04-22T01:00:19.792Z,16.30
2018-04-22T01:02:47.474Z,16.30
2018-04-22T01:05:15.821Z,16.20
2018-04-22T01:10:18.271Z,16.10
2018-04-22T01:12:45.833Z,16.10
2018-04-22T01:15:13.396Z,16.10
2018-04-22T01:17:41.157Z,16.10
2018-04-22T01:20:08.753Z,16.10
2018-04-22T01:22:36.378Z,16.10
2018-04-22T01:25:04.132Z,16.00
2018-04-22T01:27:31.737Z,16.20
2018-04-22T01:29:59.317Z,16.30
2018-04-22T01:32:27.798Z,16.10
2018-04-22T01:34:56.121Z,15.90
2018-04-22T01:37:23.778Z,15.90
2018-04-22T01:39:51.341Z,15.90
2018-04-22T01:42:19.056Z,15.80
2018-04-22T01:44:47.417Z,15.80
2018-04-22T01:47:15.139Z,15.80
2018-04-22T01:49:42.793Z,15.70
2018-04-22T01:52:10.500Z,15.60
2018-04-22T01:54:38.216Z,15.60
2018-04-22T01:57:05.816Z,15.70
2018-04-22T01:59:33.374Z,15.80
2018-04-22T02:02:00.966Z,15.70
2018-04-22T02:04:29.312Z,15.50
2018-04-22T02:06:56.896Z,15.50
2018-04-22T02:09:25.229Z,15.50
2018-04-22T02:11:52.917Z,15.50
2018-04-22T02:14:21.249Z,15.40
2018-04-22T02:16:48.934Z,15.40
2018-04-22T02:19:16.497Z,15.40
2018-04-22T02:21:44.090Z,15.40
2018-04-22T02:24:12.426Z,15.50
2018-04-22T02:26:40.049Z,15.50
2018-04-22T02:29:07.749Z,15.50
2018-04-22T02:31:35.314Z,15.40
2018-04-22T02:34:02.905Z,15.30
2018-04-22T02:36:31.240Z,15.10
2018-04-22T02:38:58.840Z,15.10
2018-04-22T02:41:26.421Z,15.10
2018-04-22T02:43:54.009Z,15.20
2018-04-22T02:46:21.569Z,15.40
2018-04-22T02:48:49.317Z,15.60
2018-04-22T02:51:16.869Z,15.80
2018-04-22T02:53:44.472Z,15.60
2018-04-22T02:56:12.287Z,15.30
2018-04-22T02:58:39.885Z,15.10
2018-04-22T03:01:07.467Z,14.90
2018-04-22T03:03:35.836Z,14.90
2018-04-22T03:06:04.185Z,14.80
2018-04-22T03:08:31.744Z,14.80
2018-04-22T03:10:59.330Z,14.80
2018-04-22T03:13:27.665Z,14.70
2018-04-22T03:15:55.248Z,14.70
2018-04-22T03:18:22.808Z,14.60
2018-04-22T03:20:50.522Z,14.60
2018-04-22T03:23:18.081Z,14.60
2018-04-22T03:25:45.679Z,14.50
2018-04-22T03:28:13.269Z,14.50
2018-04-22T03:30:41.636Z,14.50
2018-04-22T03:33:10.163Z,14.40
2018-04-22T03:35:37.737Z,14.40
2018-04-22T03:38:05.428Z,14.50
2018-04-22T03:40:33.089Z,14.50
2018-04-22T03:43:00.678Z,14.50
2018-04-22T03:45:28.237Z,14.70
2018-04-22T03:47:55.965Z,14.50
2018-04-22T03:50:23.532Z,14.40
2018-04-22T03:52:51.133Z,14.40
2018-04-22T03:55:18.693Z,14.40
2018-04-22T03:57:46.290Z,14.40
2018-04-22T04:00:13.849Z,14.30
2018-04-22T04:02:41.454Z,14.20
2018-04-22T04:05:09.051Z,14.20
2018-04-22T04:07:36.900Z,14.20
2018-04-22T04:10:04.541Z,14.20
2018-04-22T04:12:32.149Z,14.20
2018-04-22T04:15:00.482Z,14.20
2018-04-22T04:17:28.209Z,14.10
2018-04-22T04:20:08.745Z,14.20
2018-04-22T04:22:43.402Z,14.20
2018-04-22T04:28:11.936Z,14.10
2018-04-22T04:30:39.565Z,14.50
2018-04-22T04:33:07.097Z,14.50
2018-04-22T04:35:34.704Z,14.50
2018-04-22T04:38:02.348Z,14.20
2018-04-22T04:40:29.938Z,14.40
2018-04-22T04:42:57.515Z,14.20
2018-04-22T04:45:25.134Z,14.20
2018-04-22T04:47:52.756Z,14.10
2018-04-22T04:50:20.341Z,14.10
2018-04-22T04:52:48.674Z,14.30
2018-04-22T04:55:16.366Z,14.20
2018-04-22T04:57:44.722Z,14.20
2018-04-22T05:00:12.283Z,14.10
2018-04-22T05:02:40.049Z,14.20
2018-04-22T05:05:07.618Z,14.20
2018-04-22T05:07:35.973Z,14.20
2018-04-22T05:10:03.537Z,14.20
2018-04-22T05:12:31.181Z,14.30
2018-04-22T05:14:58.821Z,14.20
2018-04-22T05:17:26.418Z,14.40
2018-04-22T05:19:54.206Z,14.50
2018-04-22T05:22:22.569Z,14.60
2018-04-22T05:24:50.128Z,14.60
2018-04-22T05:27:17.737Z,14.50
2018-04-22T05:29:45.293Z,14.50
2018-04-22T05:32:12.854Z,14.60
2018-04-22T05:34:40.507Z,14.60
2018-04-22T05:37:08.117Z,14.70
2018-04-22T05:39:36.654Z,14.90
2018-04-22T05:42:04.229Z,14.90
2018-04-22T05:44:31.927Z,15.00
2018-04-22T05:47:00.364Z,15.00
2018-04-22T05:49:27.945Z,14.90
2018-04-22T05:51:55.525Z,14.90
2018-04-22T05:54:23.882Z,15.00
2018-04-22T05:56:51.434Z,15.00
2018-04-22T05:59:19.128Z,15.10
2018-04-22T06:01:47.522Z,15.20
2018-04-22T06:04:15.229Z,15.20
2018-04-22T06:06:42.793Z,15.20
2018-04-22T06:09:10.537Z,15.20
2018-04-22T06:11:38.098Z,15.30
2018-04-22T06:14:05.769Z,15.30
2018-04-22T06:16:33.456Z,15.60
2018-04-22T06:19:01.038Z,16.00
2018-04-22T06:21:28.594Z,15.90
2018-04-22T06:23:56.986Z,16.40
2018-04-22T06:26:24.653Z,16.50
2018-04-22T06:28:52.353Z,16.60
2018-04-22T06:31:19.982Z,16.30
2018-04-22T06:33:47.550Z,16.10
2018-04-22T06:36:15.191Z,16.10
2018-04-22T06:38:42.753Z,16.30
2018-04-22T06:41:10.419Z,16.30
2018-04-22T06:43:38.021Z,16.40
2018-04-22T06:46:05.686Z,16.60
2018-04-22T06:48:33.359Z,16.80
2018-04-22T06:51:01.681Z,16.90
2018-04-22T06:53:29.298Z,16.90
2018-04-22T06:55:57.661Z,17.10
2018-04-22T06:58:25.269Z,17.00
2018-04-22T07:00:52.849Z,17.30
2018-04-22T07:03:20.449Z,17.50
2018-04-22T07:05:48.793Z,17.50
2018-04-22T07:08:16.529Z,17.50
2018-04-22T07:10:44.093Z,17.60
2018-04-22T07:13:11.790Z,17.90
2018-04-22T07:15:39.475Z,18.70
2018-04-22T07:18:07.823Z,19.20
2018-04-22T07:20:35.401Z,19.20
2018-04-22T07:23:03.784Z,19.70
2018-04-22T07:25:32.123Z,21.40
2018-04-22T07:27:59.686Z,21.30
2018-04-22T07:30:27.387Z,22.30
2018-04-22T07:32:55.733Z,21.40
2018-04-22T07:35:23.342Z,21.40
2018-04-22T07:37:50.901Z,21.50
2018-04-22T07:40:18.678Z,22.40
2018-04-22T07:42:46.270Z,21.50
2018-04-22T07:45:13.894Z,21.90
2018-04-22T07:47:41.480Z,22.60
2018-04-22T07:50:09.072Z,22.50
2018-04-22T07:52:37.400Z,21.70
2018-04-22T07:55:04.989Z,21.70
2018-04-22T07:57:32.566Z,21.10
2018-04-22T08:00:01.141Z,21.50
2018-04-22T08:02:29.554Z,22.50
2018-04-22T08:04:57.158Z,22.50
2018-04-22T08:07:25.489Z,24.00
2018-04-22T08:09:53.206Z,24.00
2018-04-22T08:12:20.773Z,25.50
2018-04-22T08:14:49.243Z,26.60
2018-04-22T08:17:16.827Z,26.60
2018-04-22T08:19:45.197Z,27.10
2018-04-22T08:22:13.547Z,26.30
2018-04-22T08:24:41.146Z,26.20
2018-04-22T08:27:08.946Z,26.00
2018-04-22T08:29:36.541Z,26.00
2018-04-22T08:32:04.136Z,27.30
2018-04-22T08:34:31.713Z,26.00
2018-04-22T08:36:59.318Z,26.70
2018-04-22T08:39:26.877Z,24.90
2018-04-22T08:41:54.493Z,25.00
2018-04-22T08:44:22.096Z,25.90
2018-04-22T08:46:50.661Z,26.90
2018-04-22T08:49:18.264Z,26.90
2018-04-22T08:51:45.891Z,28.10
2018-04-22T08:54:13.505Z,27.00
2018-04-22T08:56:41.192Z,27.70
2018-04-22T08:59:08.800Z,28.00
2018-04-22T09:01:36.371Z,27.10
2018-04-22T09:04:03.980Z,27.30
2018-04-22T09:06:31.557Z,29.20
2018-04-22T09:08:59.908Z,29.40
2018-04-22T09:11:27.505Z,29.40
2018-04-22T09:13:56.106Z,28.40
2018-04-22T09:16:23.724Z,28.40
2018-04-22T09:18:51.389Z,26.90
2018-04-22T09:21:19.846Z,26.90
2018-04-22T09:23:47.544Z,27.00
2018-04-22T09:26:15.919Z,27.30
2018-04-22T09:28:44.264Z,27.40
2018-04-22T09:31:11.860Z,27.40
2018-04-22T09:33:39.442Z,27.30
2018-04-22T09:36:07.034Z,27.40
2018-04-22T09:38:34.614Z,26.80
2018-04-22T09:41:02.285Z,26.70
2018-04-22T09:43:30.820Z,27.90
2018-04-22T09:45:58.503Z,27.90
2018-04-22T09:48:26.070Z,30.00
2018-04-22T09:50:53.633Z,30.80
2018-04-22T09:53:21.405Z,30.50
2018-04-22T09:55:48.935Z,27.80
2018-04-22T09:58:16.619Z,28.70
2018-04-22T10:00:47.122Z,29.40
2018-04-22T10:03:14.890Z,28.40
2018-04-22T10:05:48.212Z,27.30
2018-04-22T10:08:16.689Z,28.80
2018-04-22T10:10:45.128Z,30.80
2018-04-22T10:13:12.692Z,30.70
2018-04-22T10:15:40.361Z,29.50
2018-04-22T10:18:07.921Z,28.70
2018-04-22T10:20:35.525Z,28.10
2018-04-22T10:23:03.254Z,28.10
2018-04-22T10:25:30.824Z,29.30
2018-04-22T10:27:59.183Z,28.90
2018-04-22T10:30:27.511Z,30.50
2018-04-22T10:32:55.261Z,30.50
2018-04-22T10:35:22.833Z,30.60
2018-04-22T10:37:50.472Z,29.50
2018-04-22T10:40:18.317Z,29.50
2018-04-22T10:42:45.882Z,29.40
2018-04-22T10:45:14.222Z,30.80
2018-04-22T10:47:41.913Z,30.70
2018-04-22T10:50:09.626Z,29.20
2018-04-22T10:52:37.236Z,28.30
2018-04-22T10:55:05.593Z,28.90
2018-04-22T10:57:33.173Z,28.90
2018-04-22T11:00:01.744Z,29.30
2018-04-22T11:02:29.309Z,29.20
2018-04-22T11:04:56.906Z,29.70
2018-04-22T11:07:24.471Z,29.70
2018-04-22T11:09:52.105Z,29.60
2018-04-22T11:12:20.440Z,29.10
2018-04-22T11:14:48.006Z,29.10
2018-04-22T11:17:16.452Z,28.60
2018-04-22T11:19:44.031Z,28.60
2018-04-22T11:22:11.626Z,29.20
2018-04-22T11:24:40.145Z,28.30
2018-04-22T11:27:07.713Z,28.30
2018-04-22T11:29:35.305Z,28.90
2018-04-22T11:32:02.893Z,29.40
2018-04-22T11:34:31.499Z,28.80
2018-04-22T11:36:59.097Z,28.70
2018-04-22T11:39:27.438Z,28.00
2018-04-22T11:41:55.037Z,28.00
2018-04-22T11:44:22.653Z,28.80
2018-04-22T11:46:50.392Z,28.30
2018-04-22T11:49:18.767Z,27.90
2018-04-22T11:51:47.108Z,27.90
2018-04-22T11:54:14.713Z,27.90
2018-04-22T11:56:42.274Z,27.60
2018-04-22T11:59:09.869Z,27.80
2018-04-22T12:01:37.441Z,27.50
2018-04-22T12:04:05.043Z,28.00
2018-04-22T12:06:33.413Z,28.00
2018-04-22T12:09:01.924Z,28.60
2018-04-22T12:11:29.506Z,28.60
2018-04-22T12:13:57.102Z,28.10
2018-04-22T12:16:25.449Z,27.80
2018-04-22T12:18:53.049Z,27.80
2018-04-22T12:21:21.501Z,28.40
2018-04-22T12:23:49.096Z,28.40
2018-04-22T12:26:16.751Z,27.70
2018-04-22T12:28:45.144Z,26.50
2018-04-22T12:31:12.769Z,26.50
2018-04-22T12:33:41.377Z,26.30
2018-04-22T12:36:09.090Z,26.20
2018-04-22T12:38:36.749Z,26.30
2018-04-22T12:41:04.329Z,26.40
2018-04-22T12:43:31.899Z,26.80
2018-04-22T12:46:00.310Z,27.80
2018-04-22T12:48:27.903Z,27.80
2018-04-22T12:50:55.505Z,27.70
2018-04-22T12:53:23.937Z,27.30
2018-04-22T12:55:51.514Z,27.20
2018-04-22T12:58:20.637Z,27.10
2018-04-22T13:00:48.957Z,27.80
2018-04-22T13:03:16.561Z,27.80
2018-04-22T13:05:44.992Z,28.70
2018-04-22T13:08:12.634Z,28.70
2018-04-22T13:10:40.498Z,28.80
2018-04-22T13:13:08.157Z,28.80
2018-04-22T13:15:35.710Z,28.40
2018-04-22T13:18:03.308Z,28.70
2018-04-22T13:20:30.965Z,29.10
2018-04-22T13:22:58.725Z,29.40
2018-04-22T13:25:26.279Z,28.80
2018-04-22T13:27:54.033Z,28.20
2018-04-22T13:30:21.580Z,27.80
2018-04-22T13:32:49.247Z,27.10
2018-04-22T13:35:16.813Z,27.40
2018-04-22T13:37:44.417Z,28.30
2018-04-22T13:40:12.885Z,27.10
2018-04-22T13:42:40.453Z,27.10
2018-04-22T13:45:08.043Z,27.60
2018-04-22T13:47:35.743Z,27.90
2018-04-22T13:50:03.478Z,27.90
2018-04-22T13:52:31.047Z,27.80
2018-04-22T13:54:58.664Z,27.80
2018-04-22T13:57:27.020Z,27.30
2018-04-22T13:59:54.776Z,27.30
2018-04-22T14:02:22.337Z,27.40
2018-04-22T14:04:50.050Z,27.10
2018-04-22T14:07:17.646Z,28.10
2018-04-22T14:09:45.270Z,28.40
2018-04-22T14:12:12.847Z,28.60
2018-04-22T14:14:40.700Z,27.90
2018-04-22T14:17:08.269Z,27.60
2018-04-22T14:19:35.976Z,27.40
2018-04-22T14:22:04.425Z,27.90
2018-04-22T14:24:32.008Z,27.90
2018-04-22T14:26:59.585Z,27.80
2018-04-22T14:29:27.936Z,27.80
2018-04-22T14:31:55.536Z,27.80
2018-04-22T14:34:23.101Z,27.90
2018-04-22T14:36:50.690Z,28.10
2018-04-22T14:39:18.260Z,28.50
2018-04-22T14:41:45.849Z,28.80
2018-04-22T14:44:26.267Z,28.10
2018-04-22T14:46:53.885Z,28.10
2018-04-22T14:49:21.721Z,27.60
2018-04-22T14:51:50.082Z,26.90
2018-04-22T14:54:17.693Z,26.90
2018-04-22T14:56:45.285Z,26.80
2018-04-22T14:59:12.867Z,26.80
2018-04-22T15:01:40.455Z,26.90
2018-04-22T15:04:08.066Z,27.20
2018-04-22T15:06:35.634Z,27.40
2018-04-22T15:09:03.215Z,27.40
2018-04-22T15:11:31.541Z,28.60
2018-04-22T15:13:59.193Z,28.60
2018-04-22T15:16:26.759Z,28.20
2018-04-22T15:18:54.353Z,27.70
2018-04-22T15:21:22.045Z,27.80
2018-04-22T15:23:50.465Z,28.10
2018-04-22T15:26:18.044Z,28.10
2018-04-22T15:28:45.722Z,28.00
2018-04-22T15:31:14.101Z,28.90
2018-04-22T15:33:42.482Z,29.30
2018-04-22T15:36:10.825Z,29.30
2018-04-22T15:38:38.446Z,29.30
2018-04-22T15:41:06.030Z,28.40
2018-04-22T15:43:33.739Z,27.80
2018-04-22T15:46:02.072Z,28.10
2018-04-22T15:48:29.776Z,28.10
2018-04-22T15:50:58.133Z,30.20
2018-04-22T15:53:25.698Z,30.20
2018-04-22T15:55:53.309Z,30.20
2018-04-22T15:58:20.926Z,29.80
2018-04-22T16:00:48.531Z,30.10
2018-04-22T16:03:16.188Z,29.60
2018-04-22T16:05:43.781Z,29.90
2018-04-22T16:08:11.537Z,30.10
2018-04-22T16:10:39.107Z,28.80
2018-04-22T16:13:06.685Z,27.80
2018-04-22T16:15:35.121Z,27.70
2018-04-22T16:18:02.702Z,27.60
2018-04-22T16:20:30.269Z,28.70
2018-04-22T16:22:57.844Z,29.30
2018-04-22T16:25:26.177Z,28.30
2018-04-22T16:27:53.938Z,28.30
2018-04-22T16:30:21.488Z,28.70
2018-04-22T16:32:49.187Z,27.90
2018-04-22T16:35:16.948Z,27.80
2018-04-22T16:37:44.476Z,28.40
2018-04-22T16:40:12.142Z,28.30
2018-04-22T16:42:39.838Z,28.20
2018-04-22T16:45:07.448Z,28.30
2018-04-22T16:47:35.039Z,28.20
2018-04-22T16:50:02.653Z,28.10
2018-04-22T16:52:30.389Z,27.80
2018-04-22T16:54:58.725Z,27.30
2018-04-22T16:57:26.337Z,27.30
2018-04-22T16:59:53.926Z,27.40
2018-04-22T17:02:21.600Z,27.50
2018-04-22T17:04:49.218Z,27.40
2018-04-22T17:07:16.790Z,27.50
2018-04-22T17:09:44.609Z,27.50
2018-04-22T17:12:12.185Z,27.60
2018-04-22T17:14:40.557Z,27.20
2018-04-22T17:17:08.894Z,27.10
2018-04-22T17:19:36.515Z,27.10
2018-04-22T17:22:04.225Z,27.30
2018-04-22T17:24:31.813Z,27.40
2018-04-22T17:27:00.154Z,27.30
2018-04-22T17:29:27.757Z,27.40
2018-04-22T17:31:56.120Z,27.00
2018-04-22T17:34:23.887Z,27.00
2018-04-22T17:36:52.249Z,27.00
2018-04-22T17:39:19.835Z,27.00
2018-04-22T17:41:48.177Z,26.90
2018-04-22T17:44:15.853Z,26.90
2018-04-22T17:46:43.572Z,26.90
2018-04-22T17:49:11.153Z,26.80
2018-04-22T17:51:38.893Z,26.50
2018-04-22T17:54:06.486Z,26.50
2018-04-22T17:56:34.106Z,26.40
2018-04-22T17:59:01.686Z,26.40
2018-04-22T18:01:29.405Z,25.80
2018-04-22T18:03:57.030Z,25.70
2018-04-22T18:06:24.622Z,25.40
2018-04-22T18:08:52.429Z,25.00
2018-04-22T18:11:19.986Z,24.90
2018-04-22T18:13:47.625Z,24.90
2018-04-22T18:16:15.660Z,24.60
2018-04-22T18:18:43.278Z,24.70
2018-04-22T18:21:11.014Z,25.10
2018-04-22T18:23:38.609Z,25.10
2018-04-22T18:26:06.298Z,24.90
2018-04-22T18:28:34.849Z,24.70
2018-04-22T18:31:02.574Z,24.70
2018-04-22T18:33:30.201Z,24.40
2018-04-22T18:35:58.647Z,24.30
2018-04-22T18:38:26.239Z,24.30
2018-04-22T18:40:54.682Z,24.10
2018-04-22T18:43:22.278Z,24.10
2018-04-22T18:45:50.641Z,24.10
2018-04-22T18:48:18.389Z,24.10
2018-04-22T18:50:46.121Z,24.10
2018-04-22T18:53:13.829Z,24.00
2018-04-22T18:55:41.652Z,24.20
2018-04-22T18:58:09.225Z,24.10
2018-04-22T19:00:36.806Z,24.20
2018-04-22T19:03:04.384Z,24.20
2018-04-22T19:05:32.753Z,24.10
2018-04-22T19:08:01.133Z,24.10
2018-04-22T19:10:29.577Z,24.00
2018-04-22T19:12:57.147Z,23.90
2018-04-22T19:15:24.833Z,24.00
2018-04-22T19:17:53.200Z,24.00
2018-04-22T19:20:20.793Z,24.00
2018-04-22T19:22:48.441Z,24.10
2018-04-22T19:25:16.771Z,23.80
2018-04-22T19:27:44.393Z,23.70
2018-04-22T19:30:11.977Z,23.80
2018-04-22T19:32:39.564Z,23.80
2018-04-22T19:35:07.125Z,23.60
2018-04-22T19:37:34.790Z,23.60
2018-04-22T19:40:02.496Z,23.40
2018-04-22T19:42:30.126Z,23.50
2018-04-22T19:44:58.470Z,23.30
2018-04-22T19:47:26.173Z,23.30
2018-04-22T19:49:53.814Z,23.50
2018-04-22T19:52:22.234Z,23.30
2018-04-22T19:54:49.850Z,23.20
2018-04-22T19:57:18.441Z,23.00
2018-04-22T19:59:46.891Z,23.00
2018-04-22T20:02:14.475Z,22.90
2018-04-22T20:04:42.870Z,23.00
2018-04-22T20:07:10.463Z,23.00
2018-04-22T20:09:38.075Z,22.90
2018-04-22T20:12:06.410Z,22.80
2018-04-22T20:14:34.245Z,22.70
2018-04-22T20:17:01.829Z,22.60
2018-04-22T20:19:29.774Z,22.50
2018-04-22T20:21:57.518Z,22.40
2018-04-22T20:24:25.166Z,22.40
2018-04-22T20:26:52.744Z,22.20
2018-04-22T20:29:20.343Z,22.10
2018-04-22T20:31:48.004Z,22.00
2018-04-22T20:34:15.649Z,21.90
2018-04-22T20:36:43.222Z,21.90
2018-04-22T20:39:10.805Z,21.80
2018-04-22T20:41:38.442Z,21.80
2018-04-22T20:44:06.042Z,21.80
2018-04-22T20:46:34.447Z,21.70
2018-04-22T20:49:02.110Z,21.60
2018-04-22T20:51:29.713Z,21.60
2018-04-22T20:53:57.286Z,21.70
2018-04-22T20:56:24.875Z,21.70
2018-04-22T20:58:52.506Z,21.80
2018-04-22T21:01:20.226Z,21.70
2018-04-22T21:03:47.830Z,21.70
2018-04-22T21:06:16.161Z,21.40
2018-04-22T21:08:43.928Z,21.40
2018-04-22T21:11:11.469Z,21.30
2018-04-22T21:13:39.134Z,21.20
2018-04-22T21:16:06.842Z,21.30
2018-04-22T21:18:34.580Z,21.60
2018-04-22T21:21:02.144Z,21.70
2018-04-22T21:23:29.737Z,21.80
2018-04-22T21:25:58.282Z,21.90
2018-04-22T21:28:25.910Z,21.90
2018-04-22T21:30:53.498Z,21.80
2018-04-22T21:33:21.132Z,21.90
2018-04-22T21:35:48.841Z,22.00
2018-04-22T21:38:16.380Z,22.10
2018-04-22T21:40:44.029Z,21.90
2018-04-22T21:43:11.825Z,21.80
2018-04-22T21:45:39.393Z,21.90
2018-04-22T21:48:07.741Z,21.90
2018-04-22T21:50:35.421Z,21.80
2018-04-22T21:53:03.786Z,21.80
2018-04-22T21:55:31.361Z,21.80
2018-04-22T21:57:59.821Z,21.40
2018-04-22T22:00:27.411Z,21.40
2018-04-22T22:02:55.757Z,21.60
2018-04-22T22:05:23.485Z,21.60
2018-04-22T22:07:51.229Z,21.60
2018-04-22T22:10:18.834Z,21.70
2018-04-22T22:12:46.431Z,21.90
2018-04-22T22:15:14.758Z,21.50
2018-04-22T22:17:42.357Z,21.40
2018-04-22T22:20:10.828Z,21.10
2018-04-22T22:22:38.398Z,21.10
2018-04-22T22:25:06.773Z,21.30
2018-04-22T22:27:35.241Z,20.90
2018-04-22T22:30:02.962Z,20.90
2018-04-22T22:32:30.513Z,20.80
2018-04-22T22:34:58.110Z,21.00
2018-04-22T22:37:25.677Z,20.70
2018-04-22T22:39:53.429Z,20.60
2018-04-22T22:42:20.993Z,20.70
2018-04-22T22:44:48.668Z,20.40
2018-04-22T22:47:17.070Z,20.50
2018-04-22T22:49:44.686Z,20.50
2018-04-22T22:52:13.789Z,20.50
2018-04-22T22:54:41.381Z,20.50
2018-04-22T22:57:09.125Z,20.70
2018-04-22T22:59:37.470Z,21.10
2018-04-22T23:02:05.056Z,21.10
2018-04-22T23:04:33.448Z,21.10
2018-04-22T23:07:01.833Z,21.20
2018-04-22T23:09:29.388Z,21.10
2018-04-22T23:11:57.754Z,21.10
2018-04-22T23:14:26.069Z,21.10
2018-04-22T23:16:53.658Z,21.00
2018-04-22T23:19:21.357Z,21.00
2018-04-22T23:21:49.728Z,21.00
2018-04-22T23:24:18.044Z,20.90
2018-04-22T23:26:45.650Z,20.90
2018-04-22T23:29:13.989Z,20.90
2018-04-22T23:31:41.546Z,20.90
2018-04-22T23:34:09.389Z,21.00
2018-04-22T23:36:36.949Z,21.10
2018-04-22T23:39:04.546Z,21.00
2018-04-22T23:41:32.173Z,20.60
2018-04-22T23:43:59.753Z,20.30
2018-04-22T23:46:27.302Z,20.10
2018-04-22T23:48:54.902Z,20.10
2018-04-22T23:51:23.288Z,20.20
2018-04-22T23:53:51.653Z,19.90
2018-04-22T23:56:19.320Z,19.90
2018-04-22T23:58:47.072Z,19.80
